sensor_id;sensor_type;location;lat;lon;timestamp;temperature;humidity
5246;DHT22;54412;51.206;6.888;2023-07-02T00:00:09;18.30;99.90
5246;DHT22;54412;51.206;6.888;2023-07-02T00:02:36;18.30;99.90
5246;DHT22;54412;51.206;6.888;2023-07-02T00:05:02;18.30;99.90
5246;DHT22;54412;51.206;6.888;2023-07-02T00:07:28;18.20;99.90
5246;DHT22;54412;51.206;6.888;2023-07-02T00:09:54;18.20;99.90
5246;DHT22;54412;51.206;6.888;2023-07-02T00:12:20;18.20;99.90
5246;DHT22;54412;51.206;6.888;2023-07-02T00:14:46;18.10;99.90
5246;DHT22;54412;51.206;6.888;2023-07-02T00:17:11;18.20;99.90
5246;DHT22;54412;51.206;6.888;2023-07-02T00:19:40;18.10;99.90
5246;DHT22;54412;51.206;6.888;2023-07-02T00:22:08;18.10;99.90
5246;DHT22;54412;51.206;6.888;2023-07-02T00:24:34;18.20;99.90
5246;DHT22;54412;51.206;6.888;2023-07-02T00:27:00;18.20;99.90
5246;DHT22;54412;51.206;6.888;2023-07-02T00:29:26;18.20;99.90
5246;DHT22;54412;51.206;6.888;2023-07-02T00:31:52;18.20;99.90
5246;DHT22;54412;51.206;6.888;2023-07-02T00:34:18;18.30;99.90
5246;DHT22;54412;51.206;6.888;2023-07-02T00:36:44;18.30;99.90
5246;DHT22;54412;51.206;6.888;2023-07-02T00:39:10;18.20;99.90
5246;DHT22;54412;51.206;6.888;2023-07-02T00:41:39;18.10;99.90
5246;DHT22;54412;51.206;6.888;2023-07-02T00:44:07;18.20;99.90
5246;DHT22;54412;51.206;6.888;2023-07-02T00:46:35;18.10;99.90
5246;DHT22;54412;51.206;6.888;2023-07-02T00:49:04;18.00;99.90
5246;DHT22;54412;51.206;6.888;2023-07-02T00:51:30;18.00;99.90
5246;DHT22;54412;51.206;6.888;2023-07-02T00:53:58;18.00;99.90
5246;DHT22;54412;51.206;6.888;2023-07-02T00:56:25;18.00;99.90
5246;DHT22;54412;51.206;6.888;2023-07-02T00:58:53;18.00;99.90
5246;DHT22;54412;51.206;6.888;2023-07-02T01:01:25;18.00;99.90
5246;DHT22;54412;51.206;6.888;2023-07-02T01:03:59;18.10;99.90
5246;DHT22;54412;51.206;6.888;2023-07-02T01:06:27;18.00;99.90
5246;DHT22;54412;51.206;6.888;2023-07-02T01:08:57;18.10;99.90
5246;DHT22;54412;51.206;6.888;2023-07-02T01:11:37;17.90;99.90
5246;DHT22;54412;51.206;6.888;2023-07-02T01:16:59;17.90;99.90
5246;DHT22;54412;51.206;6.888;2023-07-02T01:22:06;17.90;99.90
5246;DHT22;54412;51.206;6.888;2023-07-02T01:24:32;18.00;99.90
5246;DHT22;54412;51.206;6.888;2023-07-02T01:26:58;17.90;99.90
5246;DHT22;54412;51.206;6.888;2023-07-02T01:29:29;17.90;99.90
5246;DHT22;54412;51.206;6.888;2023-07-02T01:31:56;17.90;99.90
5246;DHT22;54412;51.206;6.888;2023-07-02T01:34:22;18.00;99.90
5246;DHT22;54412;51.206;6.888;2023-07-02T01:36:48;18.00;99.90
5246;DHT22;54412;51.206;6.888;2023-07-02T01:39:14;18.00;99.90
5246;DHT22;54412;51.206;6.888;2023-07-02T01:41:52;17.90;99.90
5246;DHT22;54412;51.206;6.888;2023-07-02T01:44:19;18.00;99.90
5246;DHT22;54412;51.206;6.888;2023-07-02T01:46:46;18.00;99.90
5246;DHT22;54412;51.206;6.888;2023-07-02T01:49:16;18.00;99.90
5246;DHT22;54412;51.206;6.888;2023-07-02T01:51:49;17.90;99.90
5246;DHT22;54412;51.206;6.888;2023-07-02T01:54:16;17.70;99.90
5246;DHT22;54412;51.206;6.888;2023-07-02T01:56:42;17.80;99.90
5246;DHT22;54412;51.206;6.888;2023-07-02T01:59:08;17.80;99.90
5246;DHT22;54412;51.206;6.888;2023-07-02T02:01:34;17.70;99.90
5246;DHT22;54412;51.206;6.888;2023-07-02T02:04:00;17.70;99.90
5246;DHT22;54412;51.206;6.888;2023-07-02T02:06:25;17.70;99.90
5246;DHT22;54412;51.206;6.888;2023-07-02T02:08:51;17.70;99.90
5246;DHT22;54412;51.206;6.888;2023-07-02T02:11:17;17.70;99.90
5246;DHT22;54412;51.206;6.888;2023-07-02T02:13:42;17.60;99.90
5246;DHT22;54412;51.206;6.888;2023-07-02T02:16:08;17.60;99.90
5246;DHT22;54412;51.206;6.888;2023-07-02T02:18:34;17.50;99.90
5246;DHT22;54412;51.206;6.888;2023-07-02T02:21:00;17.60;99.90
5246;DHT22;54412;51.206;6.888;2023-07-02T02:23:26;17.70;99.90
5246;DHT22;54412;51.206;6.888;2023-07-02T02:25:51;17.60;99.90
5246;DHT22;54412;51.206;6.888;2023-07-02T02:28:17;17.60;99.90
5246;DHT22;54412;51.206;6.888;2023-07-02T02:30:43;17.60;99.90
5246;DHT22;54412;51.206;6.888;2023-07-02T02:33:08;17.60;99.90
5246;DHT22;54412;51.206;6.888;2023-07-02T02:35:34;17.50;99.90
5246;DHT22;54412;51.206;6.888;2023-07-02T02:38:02;17.40;99.90
5246;DHT22;54412;51.206;6.888;2023-07-02T02:40:29;17.50;99.90
5246;DHT22;54412;51.206;6.888;2023-07-02T02:42:55;17.50;99.90
5246;DHT22;54412;51.206;6.888;2023-07-02T02:45:21;17.60;99.90
5246;DHT22;54412;51.206;6.888;2023-07-02T02:47:47;17.60;99.90
5246;DHT22;54412;51.206;6.888;2023-07-02T02:50:13;17.60;99.90
5246;DHT22;54412;51.206;6.888;2023-07-02T02:52:39;17.50;99.90
5246;DHT22;54412;51.206;6.888;2023-07-02T02:55:06;17.40;99.90
5246;DHT22;54412;51.206;6.888;2023-07-02T02:57:33;17.50;99.90
5246;DHT22;54412;51.206;6.888;2023-07-02T02:59:59;17.40;99.90
5246;DHT22;54412;51.206;6.888;2023-07-02T03:02:25;17.40;99.90
5246;DHT22;54412;51.206;6.888;2023-07-02T03:04:51;17.30;99.90
5246;DHT22;54412;51.206;6.888;2023-07-02T03:07:17;17.40;99.90
5246;DHT22;54412;51.206;6.888;2023-07-02T03:09:42;17.30;99.90
5246;DHT22;54412;51.206;6.888;2023-07-02T03:12:09;17.40;99.90
5246;DHT22;54412;51.206;6.888;2023-07-02T03:14:34;17.50;99.90
5246;DHT22;54412;51.206;6.888;2023-07-02T03:17:00;17.60;99.90
5246;DHT22;54412;51.206;6.888;2023-07-02T03:19:26;17.50;99.90
5246;DHT22;54412;51.206;6.888;2023-07-02T03:21:52;17.50;99.90
5246;DHT22;54412;51.206;6.888;2023-07-02T03:24:18;17.30;99.90
5246;DHT22;54412;51.206;6.888;2023-07-02T03:26:43;17.20;99.90
5246;DHT22;54412;51.206;6.888;2023-07-02T03:29:10;17.20;99.90
5246;DHT22;54412;51.206;6.888;2023-07-02T03:31:36;17.30;99.90
5246;DHT22;54412;51.206;6.888;2023-07-02T03:34:08;17.30;99.90
5246;DHT22;54412;51.206;6.888;2023-07-02T03:36:35;17.30;99.90
5246;DHT22;54412;51.206;6.888;2023-07-02T03:39:02;17.40;99.90
5246;DHT22;54412;51.206;6.888;2023-07-02T03:41:28;17.40;99.90
5246;DHT22;54412;51.206;6.888;2023-07-02T03:43:54;17.40;99.90
5246;DHT22;54412;51.206;6.888;2023-07-02T03:46:20;17.50;99.90
5246;DHT22;54412;51.206;6.888;2023-07-02T03:48:46;17.50;99.90
5246;DHT22;54412;51.206;6.888;2023-07-02T03:51:12;17.40;99.90
5246;DHT22;54412;51.206;6.888;2023-07-02T03:53:42;17.40;99.90
5246;DHT22;54412;51.206;6.888;2023-07-02T03:56:08;17.20;99.90
5246;DHT22;54412;51.206;6.888;2023-07-02T03:58:33;17.30;99.90
5246;DHT22;54412;51.206;6.888;2023-07-02T04:00:59;17.20;99.90
5246;DHT22;54412;51.206;6.888;2023-07-02T04:03:25;17.20;99.90
5246;DHT22;54412;51.206;6.888;2023-07-02T04:05:51;17.30;99.90
5246;DHT22;54412;51.206;6.888;2023-07-02T04:08:16;17.40;99.90
5246;DHT22;54412;51.206;6.888;2023-07-02T04:10:43;17.40;99.90
5246;DHT22;54412;51.206;6.888;2023-07-02T04:13:08;17.30;99.90
5246;DHT22;54412;51.206;6.888;2023-07-02T04:15:35;17.30;99.90
5246;DHT22;54412;51.206;6.888;2023-07-02T04:18:00;17.30;99.90
5246;DHT22;54412;51.206;6.888;2023-07-02T04:20:27;17.40;99.90
5246;DHT22;54412;51.206;6.888;2023-07-02T04:22:54;17.50;99.90
5246;DHT22;54412;51.206;6.888;2023-07-02T04:25:20;17.40;99.90
5246;DHT22;54412;51.206;6.888;2023-07-02T04:27:45;17.50;99.90
5246;DHT22;54412;51.206;6.888;2023-07-02T04:30:12;17.50;99.90
5246;DHT22;54412;51.206;6.888;2023-07-02T04:32:40;17.50;99.90
5246;DHT22;54412;51.206;6.888;2023-07-02T04:35:07;17.50;99.90
5246;DHT22;54412;51.206;6.888;2023-07-02T04:37:34;17.50;99.90
5246;DHT22;54412;51.206;6.888;2023-07-02T04:40:00;17.30;99.90
5246;DHT22;54412;51.206;6.888;2023-07-02T04:42:26;17.40;99.90
5246;DHT22;54412;51.206;6.888;2023-07-02T04:44:57;17.50;99.90
5246;DHT22;54412;51.206;6.888;2023-07-02T04:47:28;17.50;99.90
5246;DHT22;54412;51.206;6.888;2023-07-02T04:49:55;17.40;99.90
5246;DHT22;54412;51.206;6.888;2023-07-02T04:52:20;17.40;99.90
5246;DHT22;54412;51.206;6.888;2023-07-02T04:54:46;17.40;99.90
5246;DHT22;54412;51.206;6.888;2023-07-02T04:57:12;17.40;99.90
5246;DHT22;54412;51.206;6.888;2023-07-02T04:59:41;17.40;99.90
5246;DHT22;54412;51.206;6.888;2023-07-02T05:02:07;17.50;99.90
5246;DHT22;54412;51.206;6.888;2023-07-02T05:04:33;17.40;99.90
5246;DHT22;54412;51.206;6.888;2023-07-02T05:07:00;17.50;99.90
5246;DHT22;54412;51.206;6.888;2023-07-02T05:09:25;17.60;99.90
5246;DHT22;54412;51.206;6.888;2023-07-02T05:11:51;17.60;99.90
5246;DHT22;54412;51.206;6.888;2023-07-02T05:14:16;17.60;99.90
5246;DHT22;54412;51.206;6.888;2023-07-02T05:16:42;17.60;99.90
5246;DHT22;54412;51.206;6.888;2023-07-02T05:19:08;17.50;99.90
5246;DHT22;54412;51.206;6.888;2023-07-02T05:21:34;17.50;99.90
5246;DHT22;54412;51.206;6.888;2023-07-02T05:23:59;17.50;99.90
5246;DHT22;54412;51.206;6.888;2023-07-02T05:26:25;17.50;99.90
5246;DHT22;54412;51.206;6.888;2023-07-02T05:28:52;17.60;99.90
5246;DHT22;54412;51.206;6.888;2023-07-02T05:31:18;17.60;99.90
5246;DHT22;54412;51.206;6.888;2023-07-02T05:33:44;17.60;99.90
5246;DHT22;54412;51.206;6.888;2023-07-02T05:36:10;17.60;99.90
5246;DHT22;54412;51.206;6.888;2023-07-02T05:38:35;17.70;99.90
5246;DHT22;54412;51.206;6.888;2023-07-02T05:41:02;17.60;99.90
5246;DHT22;54412;51.206;6.888;2023-07-02T05:43:29;17.70;99.90
5246;DHT22;54412;51.206;6.888;2023-07-02T05:45:54;17.60;99.90
5246;DHT22;54412;51.206;6.888;2023-07-02T05:48:23;17.70;99.90
5246;DHT22;54412;51.206;6.888;2023-07-02T05:50:49;17.70;99.90
5246;DHT22;54412;51.206;6.888;2023-07-02T05:53:14;17.80;99.90
5246;DHT22;54412;51.206;6.888;2023-07-02T05:55:41;17.70;99.90
5246;DHT22;54412;51.206;6.888;2023-07-02T05:58:07;17.80;99.90
5246;DHT22;54412;51.206;6.888;2023-07-02T06:00:33;17.70;99.90
5246;DHT22;54412;51.206;6.888;2023-07-02T06:02:58;17.70;99.90
5246;DHT22;54412;51.206;6.888;2023-07-02T06:05:24;17.80;99.90
5246;DHT22;54412;51.206;6.888;2023-07-02T06:07:50;18.00;99.90
5246;DHT22;54412;51.206;6.888;2023-07-02T06:10:16;18.00;99.90
5246;DHT22;54412;51.206;6.888;2023-07-02T06:12:42;18.00;99.90
5246;DHT22;54412;51.206;6.888;2023-07-02T06:15:09;17.80;99.90
5246;DHT22;54412;51.206;6.888;2023-07-02T06:17:35;17.80;99.90
5246;DHT22;54412;51.206;6.888;2023-07-02T06:20:02;18.00;99.90
5246;DHT22;54412;51.206;6.888;2023-07-02T06:22:32;17.80;99.90
5246;DHT22;54412;51.206;6.888;2023-07-02T06:24:57;17.90;99.90
5246;DHT22;54412;51.206;6.888;2023-07-02T06:27:23;18.10;99.90
5246;DHT22;54412;51.206;6.888;2023-07-02T06:29:49;17.90;99.90
5246;DHT22;54412;51.206;6.888;2023-07-02T06:32:16;18.00;99.90
5246;DHT22;54412;51.206;6.888;2023-07-02T06:34:42;18.10;99.90
5246;DHT22;54412;51.206;6.888;2023-07-02T06:37:08;18.10;99.90
5246;DHT22;54412;51.206;6.888;2023-07-02T06:39:33;18.10;99.90
5246;DHT22;54412;51.206;6.888;2023-07-02T06:41:59;18.20;99.90
5246;DHT22;54412;51.206;6.888;2023-07-02T06:44:24;18.00;99.90
5246;DHT22;54412;51.206;6.888;2023-07-02T06:46:50;18.20;99.90
5246;DHT22;54412;51.206;6.888;2023-07-02T06:49:16;18.30;99.90
5246;DHT22;54412;51.206;6.888;2023-07-02T06:51:41;18.20;99.90
5246;DHT22;54412;51.206;6.888;2023-07-02T06:54:07;18.30;99.90
5246;DHT22;54412;51.206;6.888;2023-07-02T06:56:33;18.40;99.90
5246;DHT22;54412;51.206;6.888;2023-07-02T06:59:00;18.30;99.90
5246;DHT22;54412;51.206;6.888;2023-07-02T07:01:26;18.30;99.90
5246;DHT22;54412;51.206;6.888;2023-07-02T07:03:52;18.30;99.90
5246;DHT22;54412;51.206;6.888;2023-07-02T07:06:18;18.40;99.90
5246;DHT22;54412;51.206;6.888;2023-07-02T07:08:43;18.50;99.90
5246;DHT22;54412;51.206;6.888;2023-07-02T07:11:09;18.40;99.90
5246;DHT22;54412;51.206;6.888;2023-07-02T07:13:35;18.40;99.90
5246;DHT22;54412;51.206;6.888;2023-07-02T07:16:00;18.60;99.90
5246;DHT22;54412;51.206;6.888;2023-07-02T07:18:26;18.70;99.90
5246;DHT22;54412;51.206;6.888;2023-07-02T07:20:52;18.80;99.90
5246;DHT22;54412;51.206;6.888;2023-07-02T07:23:18;18.80;99.90
5246;DHT22;54412;51.206;6.888;2023-07-02T07:25:44;18.90;99.90
5246;DHT22;54412;51.206;6.888;2023-07-02T07:28:10;18.70;99.90
5246;DHT22;54412;51.206;6.888;2023-07-02T07:30:43;18.60;99.90
5246;DHT22;54412;51.206;6.888;2023-07-02T07:33:10;18.40;99.90
5246;DHT22;54412;51.206;6.888;2023-07-02T07:35:36;18.70;99.90
5246;DHT22;54412;51.206;6.888;2023-07-02T07:38:02;18.90;99.90
5246;DHT22;54412;51.206;6.888;2023-07-02T07:40:28;19.10;99.90
5246;DHT22;54412;51.206;6.888;2023-07-02T07:42:54;19.30;99.90
5246;DHT22;54412;51.206;6.888;2023-07-02T07:45:20;19.40;99.90
5246;DHT22;54412;51.206;6.888;2023-07-02T07:47:45;19.20;99.90
5246;DHT22;54412;51.206;6.888;2023-07-02T07:50:11;19.20;99.90
5246;DHT22;54412;51.206;6.888;2023-07-02T07:52:38;19.30;99.90
5246;DHT22;54412;51.206;6.888;2023-07-02T07:55:05;19.40;99.90
5246;DHT22;54412;51.206;6.888;2023-07-02T07:57:32;19.30;99.90
5246;DHT22;54412;51.206;6.888;2023-07-02T07:59:59;19.30;99.90
5246;DHT22;54412;51.206;6.888;2023-07-02T08:02:24;19.30;99.90
5246;DHT22;54412;51.206;6.888;2023-07-02T08:04:50;19.30;99.90
5246;DHT22;54412;51.206;6.888;2023-07-02T08:07:16;19.20;99.90
5246;DHT22;54412;51.206;6.888;2023-07-02T08:09:42;19.30;99.90
5246;DHT22;54412;51.206;6.888;2023-07-02T08:12:08;19.40;99.90
5246;DHT22;54412;51.206;6.888;2023-07-02T08:14:34;19.50;99.90
5246;DHT22;54412;51.206;6.888;2023-07-02T08:17:03;19.60;99.90
5246;DHT22;54412;51.206;6.888;2023-07-02T08:19:29;19.50;99.90
5246;DHT22;54412;51.206;6.888;2023-07-02T08:21:54;19.60;99.90
5246;DHT22;54412;51.206;6.888;2023-07-02T08:24:20;19.60;99.90
5246;DHT22;54412;51.206;6.888;2023-07-02T08:26:46;19.50;99.90
5246;DHT22;54412;51.206;6.888;2023-07-02T08:29:13;19.30;99.90
5246;DHT22;54412;51.206;6.888;2023-07-02T08:31:39;19.40;99.90
5246;DHT22;54412;51.206;6.888;2023-07-02T08:34:05;19.20;99.90
5246;DHT22;54412;51.206;6.888;2023-07-02T08:36:31;19.00;99.90
5246;DHT22;54412;51.206;6.888;2023-07-02T08:38:57;18.90;99.90
5246;DHT22;54412;51.206;6.888;2023-07-02T08:41:22;19.10;99.90
5246;DHT22;54412;51.206;6.888;2023-07-02T08:43:49;19.10;99.90
5246;DHT22;54412;51.206;6.888;2023-07-02T08:46:16;19.10;99.90
5246;DHT22;54412;51.206;6.888;2023-07-02T08:48:42;19.20;99.90
5246;DHT22;54412;51.206;6.888;2023-07-02T08:51:08;19.20;99.90
5246;DHT22;54412;51.206;6.888;2023-07-02T08:53:34;19.00;99.90
5246;DHT22;54412;51.206;6.888;2023-07-02T08:56:01;19.20;99.90
5246;DHT22;54412;51.206;6.888;2023-07-02T08:58:28;19.20;99.90
5246;DHT22;54412;51.206;6.888;2023-07-02T09:01:12;19.10;99.90
5246;DHT22;54412;51.206;6.888;2023-07-02T09:03:39;19.00;99.90
5246;DHT22;54412;51.206;6.888;2023-07-02T09:06:08;19.00;99.90
5246;DHT22;54412;51.206;6.888;2023-07-02T09:08:36;18.90;99.90
5246;DHT22;54412;51.206;6.888;2023-07-02T09:11:20;18.80;99.90
5246;DHT22;54412;51.206;6.888;2023-07-02T09:13:48;18.90;99.90
5246;DHT22;54412;51.206;6.888;2023-07-02T09:16:28;19.10;99.90
5246;DHT22;54412;51.206;6.888;2023-07-02T09:21:45;19.60;99.90
5246;DHT22;54412;51.206;6.888;2023-07-02T09:24:13;19.70;99.90
5246;DHT22;54412;51.206;6.888;2023-07-02T09:26:50;19.50;99.90
5246;DHT22;54412;51.206;6.888;2023-07-02T09:29:28;19.20;99.90
5246;DHT22;54412;51.206;6.888;2023-07-02T09:31:59;19.10;99.90
5246;DHT22;54412;51.206;6.888;2023-07-02T09:34:35;19.10;99.90
5246;DHT22;54412;51.206;6.888;2023-07-02T09:37:03;19.10;99.90
5246;DHT22;54412;51.206;6.888;2023-07-02T09:39:34;19.10;99.90
5246;DHT22;54412;51.206;6.888;2023-07-02T09:42:05;19.10;99.90
5246;DHT22;54412;51.206;6.888;2023-07-02T09:44:34;19.30;99.90
5246;DHT22;54412;51.206;6.888;2023-07-02T09:47:04;19.40;99.90
5246;DHT22;54412;51.206;6.888;2023-07-02T09:49:43;19.70;99.90
5246;DHT22;54412;51.206;6.888;2023-07-02T09:52:15;20.00;99.90
5246;DHT22;54412;51.206;6.888;2023-07-02T09:54:42;20.30;99.90
5246;DHT22;54412;51.206;6.888;2023-07-02T09:57:08;19.90;99.90
5246;DHT22;54412;51.206;6.888;2023-07-02T09:59:34;19.70;99.90
5246;DHT22;54412;51.206;6.888;2023-07-02T10:01:59;19.60;99.90
5246;DHT22;54412;51.206;6.888;2023-07-02T10:04:25;19.40;99.90
5246;DHT22;54412;51.206;6.888;2023-07-02T10:06:53;19.30;99.90
5246;DHT22;54412;51.206;6.888;2023-07-02T10:09:34;19.40;99.90
5246;DHT22;54412;51.206;6.888;2023-07-02T10:12:00;19.40;99.90
5246;DHT22;54412;51.206;6.888;2023-07-02T10:14:26;19.50;99.90
5246;DHT22;54412;51.206;6.888;2023-07-02T10:16:53;19.70;99.90
5246;DHT22;54412;51.206;6.888;2023-07-02T10:19:20;19.80;99.90
5246;DHT22;54412;51.206;6.888;2023-07-02T10:21:46;19.50;99.90
5246;DHT22;54412;51.206;6.888;2023-07-02T10:24:25;19.50;99.90
5246;DHT22;54412;51.206;6.888;2023-07-02T10:26:55;19.50;99.90
5246;DHT22;54412;51.206;6.888;2023-07-02T10:29:23;19.40;99.90
5246;DHT22;54412;51.206;6.888;2023-07-02T10:31:54;19.50;99.90
5246;DHT22;54412;51.206;6.888;2023-07-02T10:34:34;19.70;99.90
5246;DHT22;54412;51.206;6.888;2023-07-02T10:37:01;19.80;99.90
5246;DHT22;54412;51.206;6.888;2023-07-02T10:39:31;19.90;99.90
5246;DHT22;54412;51.206;6.888;2023-07-02T10:42:04;19.90;99.90
5246;DHT22;54412;51.206;6.888;2023-07-02T10:44:32;20.10;99.90
5246;DHT22;54412;51.206;6.888;2023-07-02T10:46:58;20.20;99.90
5246;DHT22;54412;51.206;6.888;2023-07-02T10:49:31;20.60;99.90
5246;DHT22;54412;51.206;6.888;2023-07-02T10:52:01;20.60;99.90
5246;DHT22;54412;51.206;6.888;2023-07-02T10:54:58;20.60;99.90
5246;DHT22;54412;51.206;6.888;2023-07-02T10:57:24;20.30;99.90
5246;DHT22;54412;51.206;6.888;2023-07-02T10:59:50;20.20;99.90
5246;DHT22;54412;51.206;6.888;2023-07-02T11:02:16;20.00;99.90
5246;DHT22;54412;51.206;6.888;2023-07-02T11:04:42;19.90;99.90
5246;DHT22;54412;51.206;6.888;2023-07-02T11:07:10;19.80;99.90
5246;DHT22;54412;51.206;6.888;2023-07-02T11:09:36;19.80;99.90
5246;DHT22;54412;51.206;6.888;2023-07-02T11:12:02;19.90;99.90
5246;DHT22;54412;51.206;6.888;2023-07-02T11:14:29;20.10;99.90
5246;DHT22;54412;51.206;6.888;2023-07-02T11:16:59;20.30;99.90
5246;DHT22;54412;51.206;6.888;2023-07-02T11:19:28;20.40;99.90
5246;DHT22;54412;51.206;6.888;2023-07-02T11:21:56;20.80;99.90
5246;DHT22;54412;51.206;6.888;2023-07-02T11:24:31;21.10;99.90
5246;DHT22;54412;51.206;6.888;2023-07-02T11:27:04;21.10;99.90
5246;DHT22;54412;51.206;6.888;2023-07-02T11:29:32;20.60;99.90
5246;DHT22;54412;51.206;6.888;2023-07-02T11:32:09;20.30;99.90
5246;DHT22;54412;51.206;6.888;2023-07-02T11:34:37;20.00;99.90
5246;DHT22;54412;51.206;6.888;2023-07-02T11:37:04;20.10;99.90
5246;DHT22;54412;51.206;6.888;2023-07-02T11:39:30;20.00;99.90
5246;DHT22;54412;51.206;6.888;2023-07-02T11:41:56;20.00;99.90
5246;DHT22;54412;51.206;6.888;2023-07-02T11:44:22;20.00;99.90
5246;DHT22;54412;51.206;6.888;2023-07-02T11:46:48;20.20;99.90
5246;DHT22;54412;51.206;6.888;2023-07-02T11:49:14;20.20;99.90
5246;DHT22;54412;51.206;6.888;2023-07-02T11:51:42;20.40;99.90
5246;DHT22;54412;51.206;6.888;2023-07-02T11:54:13;20.50;99.90
5246;DHT22;54412;51.206;6.888;2023-07-02T11:56:40;20.60;99.90
5246;DHT22;54412;51.206;6.888;2023-07-02T11:59:08;20.90;99.90
5246;DHT22;54412;51.206;6.888;2023-07-02T12:01:34;21.10;99.90
5246;DHT22;54412;51.206;6.888;2023-07-02T12:04:00;21.30;99.90
5246;DHT22;54412;51.206;6.888;2023-07-02T12:06:25;21.70;99.90
5246;DHT22;54412;51.206;6.888;2023-07-02T12:08:51;21.70;99.90
5246;DHT22;54412;51.206;6.888;2023-07-02T12:11:17;21.50;99.90
5246;DHT22;54412;51.206;6.888;2023-07-02T12:13:43;21.20;99.90
5246;DHT22;54412;51.206;6.888;2023-07-02T12:16:08;21.00;99.90
5246;DHT22;54412;51.206;6.888;2023-07-02T12:18:34;20.70;99.90
5246;DHT22;54412;51.206;6.888;2023-07-02T12:21:00;20.60;99.90
5246;DHT22;54412;51.206;6.888;2023-07-02T12:23:25;20.60;99.90
5246;DHT22;54412;51.206;6.888;2023-07-02T12:25:51;20.80;99.90
5246;DHT22;54412;51.206;6.888;2023-07-02T12:28:17;21.20;99.90
5246;DHT22;54412;51.206;6.888;2023-07-02T12:30:42;21.50;99.90
5246;DHT22;54412;51.206;6.888;2023-07-02T12:33:08;21.70;99.90
5246;DHT22;54412;51.206;6.888;2023-07-02T12:35:34;22.00;99.90
5246;DHT22;54412;51.206;6.888;2023-07-02T12:37:59;22.20;99.90
5246;DHT22;54412;51.206;6.888;2023-07-02T12:40:25;22.40;99.90
5246;DHT22;54412;51.206;6.888;2023-07-02T12:42:51;22.50;99.90
5246;DHT22;54412;51.206;6.888;2023-07-02T12:45:17;22.40;99.90
5246;DHT22;54412;51.206;6.888;2023-07-02T12:47:43;22.50;99.90
5246;DHT22;54412;51.206;6.888;2023-07-02T12:50:10;22.60;99.90
5246;DHT22;54412;51.206;6.888;2023-07-02T12:52:36;22.70;99.90
5246;DHT22;54412;51.206;6.888;2023-07-02T12:55:03;22.60;99.90
5246;DHT22;54412;51.206;6.888;2023-07-02T12:57:29;22.40;99.90
5246;DHT22;54412;51.206;6.888;2023-07-02T12:59:55;22.20;99.90
5246;DHT22;54412;51.206;6.888;2023-07-02T13:02:22;22.20;99.90
5246;DHT22;54412;51.206;6.888;2023-07-02T13:04:49;22.20;99.90
5246;DHT22;54412;51.206;6.888;2023-07-02T13:07:16;22.10;99.90
5246;DHT22;54412;51.206;6.888;2023-07-02T13:09:42;21.80;99.90
5246;DHT22;54412;51.206;6.888;2023-07-02T13:12:08;21.70;99.90
5246;DHT22;54412;51.206;6.888;2023-07-02T13:14:35;21.70;99.90
5246;DHT22;54412;51.206;6.888;2023-07-02T13:17:01;21.70;99.90
5246;DHT22;54412;51.206;6.888;2023-07-02T13:19:30;21.90;99.90
5246;DHT22;54412;51.206;6.888;2023-07-02T13:21:56;22.20;99.90
5246;DHT22;54412;51.206;6.888;2023-07-02T13:24:22;22.10;99.90
5246;DHT22;54412;51.206;6.888;2023-07-02T13:26:48;22.00;99.90
5246;DHT22;54412;51.206;6.888;2023-07-02T13:29:14;21.80;99.90
5246;DHT22;54412;51.206;6.888;2023-07-02T13:31:39;21.80;99.90
5246;DHT22;54412;51.206;6.888;2023-07-02T13:34:05;21.90;99.90
5246;DHT22;54412;51.206;6.888;2023-07-02T13:36:31;22.00;99.90
5246;DHT22;54412;51.206;6.888;2023-07-02T13:38:57;22.10;99.90
5246;DHT22;54412;51.206;6.888;2023-07-02T13:41:23;22.20;99.90
5246;DHT22;54412;51.206;6.888;2023-07-02T13:43:49;22.30;99.90
5246;DHT22;54412;51.206;6.888;2023-07-02T13:46:14;22.50;99.90
5246;DHT22;54412;51.206;6.888;2023-07-02T13:48:40;22.60;99.90
5246;DHT22;54412;51.206;6.888;2023-07-02T13:51:06;22.50;99.90
5246;DHT22;54412;51.206;6.888;2023-07-02T13:53:33;22.50;99.90
5246;DHT22;54412;51.206;6.888;2023-07-02T13:55:59;22.40;99.90
5246;DHT22;54412;51.206;6.888;2023-07-02T13:58:25;22.00;99.90
5246;DHT22;54412;51.206;6.888;2023-07-02T14:00:51;22.00;99.90
5246;DHT22;54412;51.206;6.888;2023-07-02T14:03:16;22.10;99.90
5246;DHT22;54412;51.206;6.888;2023-07-02T14:05:42;22.40;99.90
5246;DHT22;54412;51.206;6.888;2023-07-02T14:08:09;22.50;99.90
5246;DHT22;54412;51.206;6.888;2023-07-02T14:10:35;22.50;99.90
5246;DHT22;54412;51.206;6.888;2023-07-02T14:13:00;22.20;99.90
5246;DHT22;54412;51.206;6.888;2023-07-02T14:15:26;22.00;99.90
5246;DHT22;54412;51.206;6.888;2023-07-02T14:17:53;21.80;99.90
5246;DHT22;54412;51.206;6.888;2023-07-02T14:20:20;21.80;99.90
5246;DHT22;54412;51.206;6.888;2023-07-02T14:22:45;22.00;99.90
5246;DHT22;54412;51.206;6.888;2023-07-02T14:25:11;22.30;99.90
5246;DHT22;54412;51.206;6.888;2023-07-02T14:27:37;22.60;99.90
5246;DHT22;54412;51.206;6.888;2023-07-02T14:30:03;22.70;99.90
5246;DHT22;54412;51.206;6.888;2023-07-02T14:32:33;22.80;99.90
5246;DHT22;54412;51.206;6.888;2023-07-02T14:35:01;22.70;99.90
5246;DHT22;54412;51.206;6.888;2023-07-02T14:37:28;22.50;99.90
5246;DHT22;54412;51.206;6.888;2023-07-02T14:39:54;22.60;99.90
5246;DHT22;54412;51.206;6.888;2023-07-02T14:42:19;22.70;99.90
5246;DHT22;54412;51.206;6.888;2023-07-02T14:44:45;22.50;99.90
5246;DHT22;54412;51.206;6.888;2023-07-02T14:47:11;22.60;99.90
5246;DHT22;54412;51.206;6.888;2023-07-02T14:49:37;22.60;99.90
5246;DHT22;54412;51.206;6.888;2023-07-02T14:52:03;22.90;99.90
5246;DHT22;54412;51.206;6.888;2023-07-02T14:54:30;22.70;99.90
5246;DHT22;54412;51.206;6.888;2023-07-02T14:56:55;22.50;99.90
5246;DHT22;54412;51.206;6.888;2023-07-02T14:59:21;22.50;99.90
5246;DHT22;54412;51.206;6.888;2023-07-02T15:01:47;22.60;99.90
5246;DHT22;54412;51.206;6.888;2023-07-02T15:04:12;22.60;99.90
5246;DHT22;54412;51.206;6.888;2023-07-02T15:06:38;22.60;99.90
5246;DHT22;54412;51.206;6.888;2023-07-02T15:09:04;22.40;99.90
5246;DHT22;54412;51.206;6.888;2023-07-02T15:11:29;22.50;99.90
5246;DHT22;54412;51.206;6.888;2023-07-02T15:13:55;22.50;99.90
5246;DHT22;54412;51.206;6.888;2023-07-02T15:16:21;22.40;99.90
5246;DHT22;54412;51.206;6.888;2023-07-02T15:18:47;22.20;99.90
5246;DHT22;54412;51.206;6.888;2023-07-02T15:21:12;22.10;99.90
5246;DHT22;54412;51.206;6.888;2023-07-02T15:23:38;22.00;99.90
5246;DHT22;54412;51.206;6.888;2023-07-02T15:26:05;22.10;99.90
5246;DHT22;54412;51.206;6.888;2023-07-02T15:28:32;22.30;99.90
5246;DHT22;54412;51.206;6.888;2023-07-02T15:31:01;22.40;99.90
5246;DHT22;54412;51.206;6.888;2023-07-02T15:33:29;22.40;99.90
5246;DHT22;54412;51.206;6.888;2023-07-02T15:35:55;22.50;99.90
5246;DHT22;54412;51.206;6.888;2023-07-02T15:38:23;22.40;99.90
5246;DHT22;54412;51.206;6.888;2023-07-02T15:41:03;22.40;99.90
5246;DHT22;54412;51.206;6.888;2023-07-02T15:43:30;22.40;99.90
5246;DHT22;54412;51.206;6.888;2023-07-02T15:45:56;22.30;99.90
5246;DHT22;54412;51.206;6.888;2023-07-02T15:48:21;22.20;99.90
5246;DHT22;54412;51.206;6.888;2023-07-02T15:50:47;22.20;99.90